Sykesville, PA (15865)

10:35 AM EDT on July 26, 2014 (GMT -0400)
Holly Terrace (KPAFALLS2) Elev 1473 ft | 41.14 °N, 78.81 °W | Change Station

Current weather conditions updated 15 seconds ago

Clear
Clear
66.9 °F
Feels Like 66.9 °F
N
9.0
Wind Variable Wind from South
Gusts 9.0 mph

Today is forecast to be Warmer than yesterday.

Today
High -- | Low -- °F
--% Chance of Precip.
Yesterday
High -- | Low -- °F
Precip. -- in
6:05 AM 8:37 PM
Waning Crescent, 0% visible
Pressure 30.00 in
Visibility 10.0 miles
Clouds Clear
Dew Point 61 °F
Humidity 82%
Rainfall 0.09 in
Snow Depth Not available.
UV 6 out of 12
Pollen 6.10 out of 12
Air Quality Not available.
Flu Activity Not available.
METAR KDUJ 261356Z AUTO VRB03KT 10SM CLR 19/14 A3002 RMK AO2 SLP157 T01940139

More Conditions Fewer Conditions

Pressure 30.00 in
Visibility 10.0 miles
Clouds Clear
Dew Point 61 °F
Humidity 82%
Rainfall 0.09 in
Snow Depth Not available.
UV 6 out of 12
Pollen 6.10 out of 12
Air Quality Not available.
Flu Activity Not available.
METAR KDUJ 261356Z AUTO VRB03KT 10SM CLR 19/14 A3002 RMK AO2 SLP157 T01940139

More Conditions Fewer Conditions

10-Day Weather Forecast

Almanac

Astronomy

Jul. 26, 2014 Rise Set
Actual Time 6:05 AM EDT 8:37 PM EDT
Civil Twilight 5:33 AM EDT 9:09 PM EDT
Nautical Twilight 4:54 AM EDT 9:48 PM EDT
Astronomical Twilight 4:10 AM EDT 10:32 PM EDT
Moon 5:57 AM EDT 8:10 PM EDT
Length of Visible Light 15h 35m
Length of Day
14h 32m
Tomorrow will be 1m 52s shorter.
Waning Crescent, 0% of the Moon is Illuminated
Today
Waning Crescent
Jul 26
New
Aug 3
First Quarter
Aug 10
Full
Aug 17
Last Quarter

Today's Extremes

State Highs State Lows

Community

WunderPhotos

Upload Photos

1,737,587 photos uploaded!

Nearby

Snow Depth

Station Depth Elevation
No new snow has been reported.

Earthquake Activity

City Distance Mag. Time & Date
No recent earthquake activity has been reported nearby.
Minimum magnitude displayed is 2.5.

Coastal Water Temperatures

Place Temperature
No Stations Reporting

Nearby Weather Stations

Station Location Temp. Dew Point Humidity Wind Precip. Elev Updated Type
Holly Terrace, Falls Creek, PA 66.9 °F 61 °F 82% South  at  9.0 mph 0.00 in / hr 1473 ft 10:35 AM EDT Rapid Fire
West End, Punxsutawney, PA 64.0 °F 61 °F 90% SSW  at  2.0 mph 0.00 in / hr 1279 ft 10:35 AM EDT Rapid Fire
Brookville, PA, Brookville, PA 67.3 °F 60 °F 77% WSW  at  3.0 mph 0.00 in / hr 1453 ft 10:35 AM EDT Rapid Fire
Valley Overview, Brookville, PA 66.2 °F 60 °F 80% SSW  at  4.6 mph 0.00 in / hr 1608 ft 10:35 AM EDT Rapid Fire
Heathville Road, Summerville, PA 68.5 °F 58 °F 68% South  at  3.1 mph 0.00 in / hr 1217 ft 10:35 AM EDT Rapid Fire

Show More Stations Show Fewer Stations